Time;durP1;ratioP1;P1;durP2;ratioP2;P2;SDS_P1;SDS_P2;PMS_P1;PMS_P2;Temp;Humidity;BMP_temperature;BMP_pressure;BME280_temperature;BME280_humidity;BME280_pressure;Samples;Min_cycle;Max_cycle;Signal;HPM_P1;HPM_P2
2024/04/07 00:00:58;;;;;;;6.07;3.87;;;14.20;46.60;;;;;;5014996;28;20443;-70
2024/04/07 00:03:24;;;;;;;5.90;3.27;;;14.10;46.40;;;;;;5015038;28;20443;-73
2024/04/07 00:05:53;;;;;;;5.57;3.40;;;14.00;46.60;;;;;;4994667;28;20440;-70
2024/04/07 00:08:22;;;;;;;3.97;2.33;;;13.90;47.20;;;;;;4995437;28;20451;-70
2024/04/07 00:10:49;;;;;;;5.50;2.90;;;13.80;47.40;;;;;;4995791;28;20450;-70
2024/04/07 00:13:15;;;;;;;4.57;2.50;;;13.70;47.60;;;;;;4995318;28;20502;-70
2024/04/07 00:15:42;;;;;;;6.00;3.00;;;13.60;47.60;;;;;;4995780;28;20483;-70
2024/04/07 00:18:08;;;;;;;5.57;2.97;;;13.50;47.80;;;;;;5004993;28;20462;-71
2024/04/07 00:20:35;;;;;;;5.63;2.83;;;13.40;48.60;;;;;;5014899;28;20496;-70
2024/04/07 00:23:00;;;;;;;6.28;3.70;;;13.40;49.10;;;;;;5015118;28;20466;-70
2024/04/07 00:25:29;;;;;;;4.50;3.63;;;13.40;49.20;;;;;;5015131;28;20273;-70
2024/04/07 00:27:55;;;;;;;9.40;3.80;;;13.40;48.60;;;;;;5013021;28;20925;-70
2024/04/07 00:30:22;;;;;;;4.97;2.47;;;13.40;48.40;;;;;;4995498;28;20506;-70
2024/04/07 00:32:48;;;;;;;6.00;3.63;;;13.40;48.40;;;;;;4995021;28;20517;-70
2024/04/07 00:35:14;;;;;;;4.57;3.40;;;13.40;48.40;;;;;;5004717;28;20934;-70
2024/04/07 00:37:41;;;;;;;3.73;2.30;;;13.40;48.50;;;;;;4995335;28;20486;-70
2024/04/07 00:40:08;;;;;;;5.27;3.27;;;13.30;48.30;;;;;;4995263;28;20436;-70
2024/04/07 00:42:36;;;;;;;7.90;3.17;;;13.30;48.40;;;;;;4994862;28;20451;-70
2024/04/07 00:45:03;;;;;;;7.32;2.90;;;13.30;48.40;;;;;;4995143;28;20481;-71
2024/04/07 00:47:30;;;;;;;6.07;2.80;;;13.30;48.40;;;;;;4994833;28;20197;-70
2024/04/07 00:49:56;;;;;;;4.70;2.80;;;13.30;48.40;;;;;;5010515;28;20438;-70
2024/04/07 00:52:24;;;;;;;5.97;3.23;;;13.30;48.40;;;;;;5014395;28;20443;-71
2024/04/07 00:54:50;;;;;;;4.67;2.90;;;13.20;48.50;;;;;;5014340;28;20467;-70
2024/04/07 00:57:17;;;;;;;4.95;3.17;;;13.20;48.70;;;;;;5014543;28;20518;-70
2024/04/07 00:59:45;;;;;;;6.17;3.50;;;13.10;48.60;;;;;;5014180;28;20228;-70
2024/04/07 01:02:13;;;;;;;5.67;2.40;;;13.10;48.80;;;;;;4996920;28;20432;-71
2024/04/07 01:04:38;;;;;;;5.10;2.83;;;13.10;48.90;;;;;;4994828;28;20497;-70
2024/04/07 01:07:06;;;;;;;6.17;3.33;;;13.10;48.90;;;;;;4994787;28;20919;-70
2024/04/07 01:09:32;;;;;;;5.97;3.88;;;13.10;48.90;;;;;;4994355;28;20867;-71
2024/04/07 01:11:59;;;;;;;3.83;2.92;;;13.00;49.10;;;;;;4994461;28;20304;-70
2024/04/07 01:14:25;;;;;;;5.37;2.73;;;13.00;49.40;;;;;;4994265;28;20251;-70
2024/04/07 01:16:53;;;;;;;6.13;3.53;;;13.00;49.40;;;;;;4994315;28;20475;-70
2024/04/07 01:19:19;;;;;;;5.77;3.13;;;13.00;49.60;;;;;;4994263;28;20512;-70
2024/04/07 01:21:46;;;;;;;5.03;2.17;;;12.90;49.40;;;;;;5000997;28;20585;-70
2024/04/07 01:24:13;;;;;;;3.72;2.15;;;12.80;48.10;;;;;;5013662;28;20486;-70
2024/04/07 01:26:40;;;;;;;4.50;2.73;;;12.70;48.00;;;;;;5002115;28;20196;-70
2024/04/07 01:29:06;;;;;;;5.95;3.65;;;12.70;48.60;;;;;;4994326;28;20819;-70
2024/04/07 01:31:33;;;;;;;7.27;4.20;;;12.60;49.30;;;;;;4994313;28;20204;-70
2024/04/07 01:33:59;;;;;;;5.03;3.53;;;12.60;49.60;;;;;;4994319;28;20566;-70
2024/04/07 01:36:26;;;;;;;7.80;3.30;;;12.50;49.80;;;;;;5001248;28;20627;-71
2024/04/07 01:38:52;;;;;;;6.00;3.60;;;12.50;49.60;;;;;;5013990;28;20841;-70
2024/04/07 01:41:21;;;;;;;4.53;2.97;;;12.50;49.60;;;;;;5013897;28;20191;-70
2024/04/07 01:43:47;;;;;;;6.25;3.65;;;12.50;49.60;;;;;;5014017;28;20435;-70
2024/04/07 01:46:13;;;;;;;4.17;2.10;;;12.50;49.60;;;;;;5013959;28;20692;-70
2024/04/07 01:48:40;;;;;;;4.97;2.28;;;12.50;49.30;;;;;;5013815;28;20470;-71
2024/04/07 01:51:08;;;;;;;3.53;2.00;;;12.50;48.60;;;;;;5011823;28;20200;-72
2024/04/07 01:53:34;;;;;;;3.15;1.85;;;12.40;49.00;;;;;;5013396;28;20682;-70
2024/04/07 01:56:01;;;;;;;3.85;2.13;;;12.50;48.80;;;;;;4997118;28;20192;-70
2024/04/07 01:58:28;;;;;;;4.63;2.88;;;12.40;48.80;;;;;;4994133;28;20230;-70
2024/04/07 02:00:55;;;;;;;3.88;2.20;;;12.40;48.90;;;;;;4994881;28;20234;-71
2024/04/07 02:03:22;;;;;;;3.60;2.50;;;12.40;49.30;;;;;;4994174;28;20192;-70
2024/04/07 02:05:49;;;;;;;6.00;3.13;;;12.40;49.40;;;;;;4993806;28;20262;-70
2024/04/07 02:08:15;;;;;;;4.55;2.40;;;12.40;49.50;;;;;;4994179;28;20837;-70
2024/04/07 02:10:49;;;;;;;3.80;2.23;;;12.40;50.20;;;;;;4993965;28;20232;-70
2024/04/07 02:13:15;;;;;;;4.28;2.05;;;12.50;49.60;;;;;;4993673;28;20498;-70
2024/04/07 02:15:43;;;;;;;3.77;1.90;;;12.50;49.50;;;;;;4995921;28;20228;-70
2024/04/07 02:18:10;;;;;;;3.88;1.48;;;12.60;49.60;;;;;;5013340;28;20477;-70
2024/04/07 02:20:37;;;;;;;3.92;2.28;;;12.60;49.40;;;;;;5013573;28;20247;-70
2024/04/07 02:23:04;;;;;;;4.85;2.33;;;12.60;49.30;;;;;;5012980;28;20708;-70
2024/04/07 02:25:31;;;;;;;2.50;1.45;;;12.50;49.20;;;;;;5013634;28;20188;-70
2024/04/07 02:27:57;;;;;;;4.25;1.52;;;12.50;49.10;;;;;;4996157;28;20682;-70
2024/04/07 02:30:23;;;;;;;2.50;1.33;;;12.50;49.00;;;;;;4996707;28;20231;-70
2024/04/07 02:32:51;;;;;;;4.97;2.10;;;12.40;49.10;;;;;;5016559;28;20458;-70
2024/04/07 02:35:18;;;;;;;6.28;1.70;;;12.40;49.30;;;;;;5017220;28;20231;-70
2024/04/07 02:37:44;;;;;;;3.25;1.85;;;12.30;49.30;;;;;;5016811;28;20650;-70
2024/04/07 02:40:11;;;;;;;3.85;2.33;;;12.20;49.30;;;;;;5017140;28;20279;-70
2024/04/07 02:42:37;;;;;;;3.30;1.85;;;12.10;49.20;;;;;;5016104;28;20219;-72
2024/04/07 02:48:07;;;;;;;3.38;1.90;;;12.00;49.70;;;;;;5016741;28;20773;-70
2024/04/07 02:50:36;;;;;;;3.40;1.92;;;11.90;50.00;;;;;;5016572;28;20227;-70
2024/04/07 02:53:04;;;;;;;3.33;2.08;;;11.80;50.10;;;;;;5016515;28;20306;-70
2024/04/07 02:55:30;;;;;;;4.80;2.30;;;11.70;50.10;;;;;;5001198;28;20192;-70
2024/04/07 02:57:56;;;;;;;7.80;2.70;;;11.70;50.30;;;;;;4996805;28;20254;-71
2024/04/07 03:00:22;;;;;;;3.30;2.30;;;11.70;50.50;;;;;;4997207;28;20471;-70
2024/04/07 03:02:49;;;;;;;3.23;1.83;;;11.70;50.30;;;;;;4997126;28;20246;-70
2024/04/07 03:05:16;;;;;;;3.63;2.03;;;11.70;50.30;;;;;;4997056;28;20915;-70
2024/04/07 03:07:46;;;;;;;3.90;1.70;;;11.70;49.90;;;;;;4997767;28;20199;-71
2024/04/07 03:10:12;;;;;;;3.35;2.00;;;11.70;50.00;;;;;;4997466;28;20185;-70
2024/04/07 03:12:39;;;;;;;3.72;2.03;;;11.80;49.30;;;;;;4996561;28;20188;-70
2024/04/07 03:15:07;;;;;;;2.90;1.90;;;11.80;49.40;;;;;;4996841;28;20255;-70
2024/04/07 03:17:34;;;;;;;3.88;1.65;;;11.80;49.40;;;;;;4997314;28;20584;-71
2024/04/07 03:20:00;;;;;;;3.55;2.10;;;11.90;49.10;;;;;;4997764;28;20223;-70
2024/04/07 03:22:26;;;;;;;3.50;2.23;;;11.90;48.30;;;;;;5015833;28;20251;-70
2024/04/07 03:24:54;;;;;;;2.97;1.67;;;11.90;48.30;;;;;;5016219;28;20473;-72
2024/04/07 03:27:21;;;;;;;3.95;1.60;;;12.00;48.20;;;;;;5015945;28;20227;-70
2024/04/07 03:29:47;;;;;;;3.15;1.67;;;12.00;47.60;;;;;;5016159;28;20231;-70
2024/04/07 03:32:14;;;;;;;2.70;1.60;;;12.10;46.70;;;;;;5016151;28;20223;-70
2024/04/07 03:34:40;;;;;;;3.33;1.58;;;12.10;46.60;;;;;;5003015;28;20514;-70
2024/04/07 03:37:07;;;;;;;3.40;1.60;;;12.10;46.40;;;;;;4996175;28;20232;-71
2024/04/07 03:39:33;;;;;;;2.75;1.65;;;12.10;46.20;;;;;;4995881;28;21014;-70
2024/04/07 03:42:01;;;;;;;2.88;1.60;;;12.20;46.40;;;;;;4996077;28;20239;-70
2024/04/07 03:44:29;;;;;;;2.53;1.20;;;12.20;47.20;;;;;;5003143;28;20218;-70
2024/04/07 03:46:57;;;;;;;2.75;1.60;;;12.20;46.90;;;;;;5015954;28;20373;-70
2024/04/07 03:49:24;;;;;;;4.32;1.90;;;12.20;46.70;;;;;;5015514;28;20187;-70
2024/04/07 03:51:50;;;;;;;2.60;1.38;;;12.20;47.00;;;;;;5015773;28;20219;-70
2024/04/07 03:54:18;;;;;;;3.25;1.70;;;12.20;47.50;;;;;;5015406;28;20207;-70
2024/04/07 03:56:43;;;;;;;2.47;1.63;;;12.10;47.90;;;;;;5015915;28;20226;-70
2024/04/07 03:59:15;;;;;;;2.80;1.60;;;12.10;48.20;;;;;;5008609;28;20601;-70
2024/04/07 04:01:41;;;;;;;3.97;2.38;;;12.10;47.90;;;;;;4996786;28;20934;-70
2024/04/07 04:04:08;;;;;;;4.10;1.73;;;12.00;47.40;;;;;;4995964;28;20206;-70
2024/04/07 04:06:35;;;;;;;3.60;1.52;;;12.00;47.40;;;;;;4995870;28;20223;-70
2024/04/07 04:09:04;;;;;;;3.00;1.30;;;11.90;47.40;;;;;;4998233;28;20239;-70
2024/04/07 04:11:30;;;;;;;3.30;1.63;;;11.90;47.50;;;;;;5015400;28;20188;-70
2024/04/07 04:13:56;;;;;;;2.97;1.73;;;11.80;47.70;;;;;;5015295;28;20300;-70
2024/04/07 04:16:24;;;;;;;2.70;1.65;;;11.80;47.90;;;;;;5015434;28;20481;-70
2024/04/07 04:18:52;;;;;;;2.53;1.38;;;11.70;47.90;;;;;;5014796;28;20231;-70
2024/04/07 04:21:18;;;;;;;5.30;1.83;;;11.70;48.10;;;;;;5014824;28;20650;-70
2024/04/07 04:23:48;;;;;;;2.73;1.60;;;11.70;48.10;;;;;;5012334;28;20219;-70
2024/04/07 04:26:15;;;;;;;3.25;1.48;;;11.70;48.00;;;;;;4995565;28;20470;-70
2024/04/07 04:28:41;;;;;;;3.97;1.95;;;11.60;47.80;;;;;;4996362;28;20558;-70
2024/04/07 04:31:09;;;;;;;3.00;1.58;;;11.50;48.00;;;;;;4995477;28;20197;-70
2024/04/07 04:33:38;;;;;;;3.67;1.92;;;11.50;48.10;;;;;;4995546;28;20216;-70
2024/04/07 04:36:11;;;;;;;2.90;1.50;;;11.50;48.30;;;;;;4995584;28;20197;-70
2024/04/07 04:38:38;;;;;;;3.58;1.73;;;11.40;48.20;;;;;;4995104;28;20303;-70
2024/04/07 04:41:05;;;;;;;3.78;2.28;;;11.40;48.40;;;;;;4995213;28;20525;-70
2024/04/07 04:43:32;;;;;;;4.15;2.17;;;11.30;48.60;;;;;;4996854;28;20983;-70
2024/04/07 04:46:03;;;;;;;4.18;2.22;;;11.20;48.90;;;;;;5014771;28;20227;-70
2024/04/07 04:48:31;;;;;;;5.20;1.85;;;11.20;49.30;;;;;;5014611;28;20192;-70
2024/04/07 04:50:59;;;;;;;3.65;2.30;;;11.30;49.60;;;;;;5014542;28;20601;-70
2024/04/07 04:53:26;;;;;;;6.00;2.45;;;11.30;49.40;;;;;;5013135;28;20212;-70
2024/04/07 04:55:52;;;;;;;3.70;1.70;;;11.30;49.40;;;;;;5010209;28;20215;-71
2024/04/07 04:58:20;;;;;;;5.07;2.10;;;11.30;48.60;;;;;;5013826;28;20191;-70
2024/04/07 05:00:46;;;;;;;3.53;1.85;;;11.30;48.80;;;;;;5013944;28;20195;-70
2024/04/07 05:03:14;;;;;;;3.08;1.70;;;11.40;48.30;;;;;;5013647;28;20195;-70
2024/04/07 05:05:40;;;;;;;3.30;1.70;;;11.40;48.20;;;;;;5012048;28;20200;-70
2024/04/07 05:08:08;;;;;;;4.50;1.93;;;11.40;48.50;;;;;;5005311;28;20197;-70
2024/04/07 05:10:34;;;;;;;3.38;2.15;;;11.50;49.10;;;;;;4991659;28;20467;-70
2024/04/07 05:13:01;;;;;;;3.53;1.98;;;11.50;49.60;;;;;;4999851;28;20222;-71
2024/04/07 05:15:27;;;;;;;2.97;1.70;;;11.50;49.80;;;;;;5013029;28;20211;-70
2024/04/07 05:17:54;;;;;;;3.30;1.53;;;11.60;49.80;;;;;;5012892;28;20246;-70
2024/04/07 05:20:20;;;;;;;6.25;1.90;;;11.60;50.40;;;;;;4998036;28;20523;-70
2024/04/07 05:22:47;;;;;;;3.87;2.03;;;11.60;50.20;;;;;;4990168;28;20323;-70
2024/04/07 05:25:15;;;;;;;3.63;1.83;;;11.60;50.20;;;;;;4992136;28;21002;-70
2024/04/07 05:27:42;;;;;;;3.20;1.50;;;11.70;50.60;;;;;;4993438;28;20192;-71
2024/04/07 05:30:10;;;;;;;2.78;1.50;;;11.70;50.50;;;;;;4993751;28;20220;-70
2024/04/07 05:32:37;;;;;;;6.93;1.90;;;11.80;50.60;;;;;;4993611;28;20282;-70
2024/04/07 05:35:04;;;;;;;2.90;1.60;;;11.80;50.80;;;;;;5004977;28;20678;-70
2024/04/07 05:37:31;;;;;;;3.03;1.60;;;11.70;50.10;;;;;;5011019;28;20203;-70
2024/04/07 05:39:57;;;;;;;6.25;1.83;;;11.80;50.00;;;;;;5012680;28;20250;-70
2024/04/07 05:42:27;;;;;;;3.40;1.90;;;11.90;51.10;;;;;;5013036;28;20227;-70
2024/04/07 05:44:54;;;;;;;3.00;1.50;;;11.90;51.50;;;;;;5013148;28;20478;-70
2024/04/07 05:47:22;;;;;;;4.25;2.00;;;12.00;52.00;;;;;;5004006;28;20196;-70
2024/04/07 05:49:47;;;;;;;4.53;1.70;;;12.10;52.70;;;;;;5005383;28;20207;-70
2024/04/07 05:52:14;;;;;;;4.87;2.17;;;12.20;53.00;;;;;;5005327;28;20639;-70
2024/04/07 05:54:40;;;;;;;3.08;1.83;;;12.30;53.90;;;;;;4993277;28;20857;-70
2024/04/07 05:57:07;;;;;;;3.60;1.90;;;12.40;54.30;;;;;;4993202;28;20275;-70
2024/04/07 05:59:34;;;;;;;3.70;2.15;;;12.50;53.90;;;;;;5008492;28;20462;-70
2024/04/07 06:02:02;;;;;;;3.45;1.77;;;12.60;53.80;;;;;;5001738;28;20199;-70
2024/04/07 06:04:28;;;;;;;3.97;2.35;;;12.70;51.30;;;;;;4996513;28;20200;-70
2024/04/07 06:06:55;;;;;;;3.13;2.00;;;12.80;52.80;;;;;;4996956;28;20230;-70
2024/04/07 06:09:21;;;;;;;5.07;3.97;;;12.90;52.40;;;;;;4997425;28;20185;-70
2024/04/07 06:11:48;;;;;;;4.50;2.70;;;13.10;50.80;;;;;;5006504;28;20195;-70
2024/04/07 06:14:14;;;;;;;3.77;2.40;;;13.10;51.60;;;;;;5016318;28;20473;-71
2024/04/07 06:16:43;;;;;;;4.10;2.27;;;13.20;52.30;;;;;;5013264;28;20936;-71
2024/04/07 06:19:08;;;;;;;3.57;2.40;;;13.30;52.40;;;;;;5015065;28;20900;-71
2024/04/07 06:21:35;;;;;;;3.87;2.10;;;13.50;52.70;;;;;;5016108;28;20458;-70
2024/04/07 06:24:01;;;;;;;4.63;2.40;;;13.60;53.50;;;;;;5015655;28;20562;-70
2024/04/07 06:26:28;;;;;;;5.73;2.20;;;13.70;51.50;;;;;;5013802;28;20521;-70
2024/04/07 06:28:54;;;;;;;3.30;2.20;;;13.80;51.90;;;;;;5016060;28;20477;-71
2024/04/07 06:31:21;;;;;;;3.23;2.00;;;14.00;52.00;;;;;;5016021;28;20478;-70
2024/04/07 06:33:48;;;;;;;3.90;2.67;;;14.10;49.80;;;;;;5015810;28;20474;-71
2024/04/07 06:36:15;;;;;;;3.73;2.10;;;14.20;49.90;;;;;;5015437;28;20945;-71
2024/04/07 06:38:41;;;;;;;4.37;2.50;;;14.40;49.40;;;;;;5015925;28;20435;-70
2024/04/07 06:41:08;;;;;;;5.60;2.47;;;14.50;49.50;;;;;;5015964;28;20439;-70
2024/04/07 06:43:35;;;;;;;4.37;1.63;;;14.70;47.60;;;;;;5015934;28;20482;-70
2024/04/07 06:46:03;;;;;;;5.80;2.60;;;14.80;48.00;;;;;;5014826;28;20518;-70
2024/04/07 06:48:28;;;;;;;3.80;1.50;;;14.90;48.70;;;;;;5015471;28;20449;-70
2024/04/07 06:50:58;;;;;;;3.43;1.77;;;15.10;48.80;;;;;;5008266;28;20529;-71
2024/04/07 06:53:24;;;;;;;3.43;1.67;;;15.20;48.40;;;;;;5015911;28;20477;-70
2024/04/07 06:55:51;;;;;;;4.23;2.30;;;15.40;47.90;;;;;;5015232;28;20825;-70
2024/04/07 06:58:18;;;;;;;5.87;2.53;;;15.50;47.00;;;;;;5015697;28;20442;-71
2024/04/07 07:00:43;;;;;;;6.50;2.53;;;15.60;47.70;;;;;;5015095;28;20477;-70
2024/04/07 07:03:11;;;;;;;3.90;1.90;;;15.70;46.70;;;;;;5015684;28;20478;-71
2024/04/07 07:05:38;;;;;;;3.10;2.03;;;15.80;47.70;;;;;;5015254;28;20474;-71
2024/04/07 07:08:07;;;;;;;4.30;2.10;;;15.90;49.50;;;;;;5013944;28;20522;-71
2024/04/07 07:10:35;;;;;;;4.60;2.50;;;16.10;48.90;;;;;;5015143;28;20463;-71
2024/04/07 07:13:03;;;;;;;3.17;1.80;;;16.10;49.30;;;;;;4997295;28;20440;-71
2024/04/07 07:15:29;;;;;;;3.40;2.20;;;16.30;50.60;;;;;;4995174;28;20471;-72
2024/04/07 07:17:56;;;;;;;4.40;2.87;;;16.50;50.20;;;;;;4996000;28;20531;-71
2024/04/07 07:20:22;;;;;;;4.80;2.30;;;16.60;50.90;;;;;;4995855;28;20475;-71
2024/04/07 07:22:58;;;;;;;6.30;2.00;;;16.80;51.90;;;;;;4995619;28;20499;-71
2024/04/07 07:25:25;;;;;;;3.30;1.57;;;17.00;52.00;;;;;;4995480;28;20429;-71
2024/04/07 07:27:53;;;;;;;4.10;1.73;;;17.20;52.40;;;;;;4995790;28;20775;-70
2024/04/07 07:30:19;;;;;;;4.47;1.50;;;17.40;52.10;;;;;;4996047;28;20832;-70
2024/04/07 07:32:46;;;;;;;3.27;1.63;;;17.60;50.70;;;;;;4995472;28;20791;-72
2024/04/07 07:35:12;;;;;;;9.83;2.60;;;17.90;51.40;;;;;;4994725;28;20516;-71
2024/04/07 07:37:39;;;;;;;2.83;1.33;;;18.00;51.70;;;;;;4995460;28;20441;-71
2024/04/07 07:40:07;;;;;;;10.43;2.03;;;18.20;51.20;;;;;;4995507;28;20438;-71
2024/04/07 07:42:35;;;;;;;4.93;1.70;;;18.50;49.10;;;;;;4995079;28;20437;-72
2024/04/07 07:45:02;;;;;;;8.00;1.63;;;18.80;47.20;;;;;;4995251;28;20446;-70
2024/04/07 07:47:28;;;;;;;4.20;1.30;;;19.10;46.80;;;;;;4995121;28;20451;-71
2024/04/07 07:49:57;;;;;;;2.90;1.60;;;19.40;45.50;;;;;;4994792;28;20486;-71
2024/04/07 07:52:24;;;;;;;9.63;2.20;;;19.90;47.10;;;;;;4994924;28;20841;-71
2024/04/07 07:54:50;;;;;;;4.53;1.83;;;20.50;46.90;;;;;;4994840;28;21016;-71
2024/04/07 07:57:19;;;;;;;3.40;1.63;;;21.30;44.80;;;;;;4995397;28;20518;-70
2024/04/07 07:59:47;;;;;;;3.93;1.30;;;22.00;42.10;;;;;;4995076;28;20482;-71
2024/04/07 08:02:14;;;;;;;6.20;1.50;;;22.70;40.30;;;;;;4995201;28;20440;-71
2024/04/07 08:04:40;;;;;;;3.10;1.40;;;23.30;40.80;;;;;;4994668;28;20965;-71
2024/04/07 08:07:07;;;;;;;2.83;1.13;;;24.10;38.40;;;;;;4994696;28;20958;-71
2024/04/07 08:09:33;;;;;;;3.17;1.07;;;24.80;36.70;;;;;;4994983;28;20470;-71
2024/04/07 08:12:00;;;;;;;3.60;1.47;;;25.60;33.70;;;;;;4994710;28;20869;-72
2024/04/07 08:14:26;;;;;;;3.23;1.43;;;26.20;32.20;;;;;;4993119;28;20507;-72
2024/04/07 08:16:54;;;;;;;2.80;1.43;;;26.80;32.50;;;;;;4994473;28;20448;-72
2024/04/07 08:19:23;;;;;;;4.07;1.33;;;27.40;30.00;;;;;;4994929;28;20502;-72
2024/04/07 08:21:51;;;;;;;3.23;1.60;;;27.90;29.50;;;;;;4994625;28;20446;-71
2024/04/07 08:24:18;;;;;;;3.33;1.40;;;28.40;28.00;;;;;;4994824;28;20495;-72
2024/04/07 08:26:45;;;;;;;2.87;1.27;;;28.90;27.40;;;;;;4993531;28;20443;-71
2024/04/07 08:29:11;;;;;;;3.53;1.50;;;29.50;27.20;;;;;;4994585;28;20435;-71
2024/04/07 08:31:38;;;;;;;4.17;1.97;;;30.00;25.40;;;;;;4994521;28;20538;-71
2024/04/07 08:34:05;;;;;;;4.57;1.70;;;30.30;22.60;;;;;;5012218;28;20977;-71
2024/04/07 08:36:32;;;;;;;4.73;1.50;;;30.50;24.70;;;;;;5013737;28;20458;-72
2024/04/07 08:38:58;;;;;;;4.00;1.20;;;30.90;24.10;;;;;;5013810;28;20427;-72
2024/04/07 08:41:25;;;;;;;2.87;1.47;;;31.40;24.60;;;;;;5013646;28;20492;-72
2024/04/07 08:43:52;;;;;;;3.87;1.57;;;31.90;23.60;;;;;;5013164;28;20443;-71
2024/04/07 08:46:19;;;;;;;2.37;1.00;;;32.40;23.70;;;;;;5013864;28;20501;-72
2024/04/07 08:48:50;;;;;;;2.93;1.40;;;32.90;23.10;;;;;;5013929;28;20466;-71
2024/04/07 08:51:19;;;;;;;2.70;1.20;;;33.40;22.70;;;;;;5013376;28;20924;-72
2024/04/07 08:53:45;;;;;;;3.70;1.13;;;33.80;22.10;;;;;;5013816;28;20458;-72
2024/04/07 08:56:14;;;;;;;3.40;1.30;;;34.20;22.90;;;;;;5013644;28;20470;-72
2024/04/07 08:58:51;;;;;;;4.90;1.43;;;34.60;22.30;;;;;;5134282;27;20525;-70
2024/04/07 09:01:20;;;;;;;3.03;1.50;;;34.90;20.00;;;;;;5134603;27;20445;-71
2024/04/07 09:03:49;;;;;;;3.90;2.00;;;35.20;19.60;;;;;;5132343;27;20525;-71
2024/04/07 09:06:15;;;;;;;6.30;2.33;;;35.50;19.40;;;;;;5138558;27;20902;-71
2024/04/07 09:08:43;;;;;;;3.47;1.50;;;35.80;16.90;;;;;;5123576;27;20449;-70
2024/04/07 09:11:09;;;;;;;8.20;1.50;;;36.10;17.00;;;;;;5122331;27;20907;-71
2024/04/07 09:13:37;;;;;;;5.07;1.60;;;36.30;16.10;;;;;;5137231;27;20448;-71
2024/04/07 09:16:06;;;;;;;6.53;1.57;;;36.60;17.00;;;;;;5131440;27;20778;-71
2024/04/07 09:18:33;;;;;;;7.33;1.70;;;37.00;16.40;;;;;;5124037;27;21707;-71
2024/04/07 09:20:59;;;;;;;9.10;2.00;;;37.20;15.00;;;;;;5131770;27;20473;-71
2024/04/07 09:23:26;;;;;;;5.27;1.83;;;37.50;15.50;;;;;;5126248;27;20466;-71
2024/04/07 09:25:53;;;;;;;5.30;1.60;;;37.80;16.40;;;;;;5131342;27;20476;-71
2024/04/07 09:28:20;;;;;;;5.10;1.80;;;38.10;15.50;;;;;;5121110;27;20780;-71
2024/04/07 09:30:46;;;;;;;5.37;1.60;;;38.40;14.20;;;;;;5126627;27;20470;-70
2024/04/07 09:33:15;;;;;;;8.57;2.00;;;38.50;14.60;;;;;;5133896;27;20515;-72
2024/04/07 09:35:41;;;;;;;6.83;2.00;;;38.80;14.00;;;;;;5118926;27;20436;-71
2024/04/07 09:38:08;;;;;;;10.43;2.23;;;38.80;13.20;;;;;;5128115;27;21046;-72
2024/04/07 09:40:35;;;;;;;8.10;1.97;;;38.70;13.30;;;;;;5131223;27;20928;-71
2024/04/07 09:43:03;;;;;;;8.70;2.60;;;38.60;13.30;;;;;;5130200;27;20492;-71
2024/04/07 09:45:29;;;;;;;6.20;1.70;;;38.40;12.80;;;;;;5136900;27;20437;-71
2024/04/07 09:48:02;;;;;;;5.97;1.77;;;38.40;13.50;;;;;;5125680;27;20918;-71
2024/04/07 09:50:34;;;;;;;5.03;1.93;;;38.20;13.80;;;;;;5121198;27;20951;-71
2024/04/07 09:53:06;;;;;;;10.63;2.20;;;38.10;13.60;;;;;;5138141;27;20429;-72
2024/04/07 09:55:36;;;;;;;6.50;1.50;;;38.20;13.60;;;;;;5124929;27;20462;-71
2024/04/07 09:58:04;;;;;;;4.87;2.10;;;38.20;14.40;;;;;;5130356;27;20968;-71
2024/04/07 10:00:31;;;;;;;6.00;2.03;;;38.40;13.90;;;;;;5132561;27;20425;-71
2024/04/07 10:02:59;;;;;;;8.13;1.70;;;38.40;14.50;;;;;;5122084;27;20449;-71
2024/04/07 10:05:25;;;;;;;8.57;3.00;;;38.40;14.30;;;;;;5133494;27;20442;-71
2024/04/07 10:07:54;;;;;;;12.27;3.20;;;38.50;14.40;;;;;;5128004;27;20448;-72
2024/04/07 10:10:25;;;;;;;9.50;3.80;;;38.60;13.50;;;;;;5112137;27;20520;-71
2024/04/07 10:12:53;;;;;;;6.33;2.87;;;38.70;14.20;;;;;;5111805;27;20449;-71
2024/04/07 10:15:20;;;;;;;7.10;1.90;;;38.80;13.60;;;;;;5117965;27;20445;-71
2024/04/07 10:17:49;;;;;;;11.00;2.60;;;38.80;13.50;;;;;;5102252;27;20473;-71
2024/04/07 10:20:15;;;;;;;8.70;3.00;;;38.90;13.60;;;;;;5111791;27;20458;-71
2024/04/07 10:22:43;;;;;;;5.33;2.00;;;39.00;12.50;;;;;;5114812;27;20997;-71
2024/04/07 10:25:10;;;;;;;7.13;2.33;;;39.00;12.40;;;;;;5106969;27;20246;-71
2024/04/07 10:27:43;;;;;;;7.70;1.73;;;38.80;13.20;;;;;;5115309;27;20431;-70
2024/04/07 10:30:11;;;;;;;8.27;2.20;;;38.60;12.80;;;;;;5111190;27;20416;-70
2024/04/07 10:32:40;;;;;;;10.23;2.10;;;38.40;13.50;;;;;;5107726;27;20427;-71
2024/04/07 10:35:08;;;;;;;9.83;2.53;;;38.40;13.10;;;;;;5119450;27;20464;-71
2024/04/07 10:37:35;;;;;;;11.93;2.37;;;38.50;12.50;;;;;;5110466;27;20477;-71
2024/04/07 10:40:03;;;;;;;4.37;1.93;;;38.70;13.90;;;;;;5111855;27;20467;-72
2024/04/07 10:42:31;;;;;;;10.10;1.90;;;38.70;12.20;;;;;;5119063;27;20975;-71
2024/04/07 10:44:57;;;;;;;11.70;3.37;;;38.80;12.40;;;;;;5111913;27;20828;-72
2024/04/07 10:47:24;;;;;;;12.23;3.60;;;38.80;12.90;;;;;;5117940;27;20510;-71
2024/04/07 10:49:50;;;;;;;10.73;2.40;;;38.90;12.40;;;;;;5118558;27;20437;-71
2024/04/07 10:52:19;;;;;;;4.90;2.03;;;39.00;13.40;;;;;;5110752;27;20441;-71
2024/04/07 10:54:45;;;;;;;6.33;1.97;;;39.30;13.40;;;;;;5118665;27;20497;-71
2024/04/07 10:57:13;;;;;;;7.07;2.07;;;39.50;12.90;;;;;;5110571;27;20813;-71
2024/04/07 10:59:41;;;;;;;5.10;1.80;;;39.60;12.30;;;;;;5110033;27;20912;-71
2024/04/07 11:02:09;;;;;;;6.43;2.13;;;39.80;12.20;;;;;;5122280;27;20443;-71
2024/04/07 11:04:35;;;;;;;5.60;2.00;;;39.90;12.10;;;;;;5110736;27;20892;-70
2024/04/07 11:07:04;;;;;;;8.77;2.10;;;40.00;12.00;;;;;;5115527;27;20531;-70
2024/04/07 11:09:32;;;;;;;9.17;2.80;;;39.80;11.70;;;;;;5119788;27;20479;-71
2024/04/07 11:12:01;;;;;;;10.23;2.37;;;39.70;13.10;;;;;;5106960;27;20435;-71
2024/04/07 11:14:28;;;;;;;10.00;2.43;;;39.40;14.90;;;;;;5119728;27;20442;-71
2024/04/07 11:17:00;;;;;;;10.80;2.20;;;39.10;13.00;;;;;;5118151;27;20846;-70
2024/04/07 11:19:27;;;;;;;7.90;2.00;;;38.90;14.90;;;;;;5109483;27;20486;-70
2024/04/07 11:21:56;;;;;;;10.40;2.40;;;38.70;14.30;;;;;;5115125;27;21054;-72
2024/04/07 11:24:22;;;;;;;6.77;1.90;;;38.20;15.30;;;;;;5114566;27;20495;-71
2024/04/07 11:26:50;;;;;;;5.73;2.27;;;38.00;15.40;;;;;;5105028;27;20899;-71
2024/04/07 11:29:16;;;;;;;6.60;2.30;;;37.80;15.50;;;;;;5117165;27;20912;-71
2024/04/07 11:31:43;;;;;;;10.10;1.93;;;37.70;16.90;;;;;;5113785;27;20450;-71
2024/04/07 11:34:10;;;;;;;5.53;2.20;;;37.60;16.20;;;;;;5106816;27;20933;-70
2024/04/07 11:36:37;;;;;;;12.47;3.50;;;37.50;16.50;;;;;;5118547;27;20438;-71
2024/04/07 11:39:03;;;;;;;5.47;1.80;;;37.60;15.70;;;;;;5107663;27;20981;-71
2024/04/07 11:41:30;;;;;;;12.83;2.20;;;37.60;16.50;;;;;;5118820;27;20486;-71
2024/04/07 11:43:56;;;;;;;5.80;1.63;;;37.40;14.70;;;;;;5122522;27;20440;-70
2024/04/07 11:46:24;;;;;;;8.20;1.83;;;37.30;15.70;;;;;;5103652;27;20431;-70
2024/04/07 11:48:50;;;;;;;4.50;1.60;;;37.20;16.20;;;;;;5115916;27;20427;-71
2024/04/07 11:51:19;;;;;;;7.30;2.37;;;37.10;15.60;;;;;;5111675;27;20798;-71
2024/04/07 11:53:47;;;;;;;14.97;2.10;;;37.30;17.00;;;;;;5105245;27;20435;-71
2024/04/07 11:56:14;;;;;;;9.63;1.80;;;37.40;16.10;;;;;;5113678;27;20960;-71
2024/04/07 11:58:41;;;;;;;6.87;2.03;;;37.40;16.00;;;;;;5115575;27;20496;-70
2024/04/07 12:01:08;;;;;;;13.83;2.30;;;37.40;15.80;;;;;;5117577;27;20929;-70
2024/04/07 12:03:34;;;;;;;13.10;1.83;;;37.40;15.30;;;;;;5113356;27;20421;-70
2024/04/07 12:06:01;;;;;;;8.43;2.10;;;37.30;15.20;;;;;;5111112;27;20437;-71
2024/04/07 12:08:29;;;;;;;11.70;2.50;;;37.20;15.90;;;;;;5108988;27;20445;-70
2024/04/07 12:10:56;;;;;;;9.80;2.43;;;37.00;16.00;;;;;;5118674;27;20450;-70
2024/04/07 12:13:22;;;;;;;8.20;1.73;;;36.80;14.40;;;;;;5115313;27;20439;-70
2024/04/07 12:15:50;;;;;;;13.50;2.23;;;36.70;15.90;;;;;;5117116;27;20447;-71
2024/04/07 12:18:16;;;;;;;8.83;2.17;;;36.50;15.60;;;;;;5110270;27;20474;-70
2024/04/07 12:20:43;;;;;;;4.50;1.70;;;36.30;15.90;;;;;;5106225;27;20945;-70
2024/04/07 12:23:09;;;;;;;10.60;2.53;;;36.20;15.90;;;;;;5121139;27;20442;-71
2024/04/07 12:25:38;;;;;;;9.43;2.53;;;35.90;15.60;;;;;;5112739;27;20442;-71
2024/04/07 12:28:04;;;;;;;11.87;2.37;;;35.50;15.60;;;;;;5112497;27;20220;-71
2024/04/07 12:30:31;;;;;;;8.23;1.80;;;35.00;15.60;;;;;;5113358;27;20450;-70
2024/04/07 12:32:57;;;;;;;6.00;1.67;;;34.50;16.10;;;;;;5110177;27;20470;-70
2024/04/07 12:35:24;;;;;;;6.37;1.93;;;34.20;15.90;;;;;;5115630;27;20833;-71
2024/04/07 12:37:50;;;;;;;7.77;1.90;;;34.00;18.20;;;;;;5109745;27;20626;-70
2024/04/07 12:40:17;;;;;;;9.27;2.30;;;33.80;18.80;;;;;;5112624;27;20547;-70
2024/04/07 12:42:44;;;;;;;10.33;2.77;;;33.80;18.10;;;;;;5116134;27;20467;-70
2024/04/07 12:45:11;;;;;;;12.50;2.97;;;33.80;16.60;;;;;;5109216;27;20845;-71
2024/04/07 12:47:37;;;;;;;7.93;2.20;;;33.80;16.60;;;;;;5111398;27;20466;-71